createdAt,value
2023-02-08T00:01:47.888Z,42.13
2023-02-08T00:04:14.470Z,37.25
2023-02-08T00:06:41.675Z,47.95
2023-02-08T00:09:08.684Z,53.28
2023-02-08T00:11:35.810Z,47.28
2023-02-08T00:14:02.831Z,44.78
2023-02-08T00:16:29.502Z,42.22
2023-02-08T00:18:56.270Z,48.40
2023-02-08T00:21:22.849Z,42.15
2023-02-08T00:23:49.679Z,41.22
2023-02-08T00:26:18.603Z,41.15
2023-02-08T00:28:45.235Z,47.38
2023-02-08T00:31:11.827Z,40.65
2023-02-08T00:33:38.391Z,47.50
2023-02-08T00:36:07.981Z,45.67
2023-02-08T00:38:35.253Z,42.00
2023-02-08T00:41:01.790Z,46.08
2023-02-08T00:43:30.792Z,48.65
2023-02-08T00:45:59.060Z,46.08
2023-02-08T00:48:28.532Z,51.17
2023-02-08T00:51:01.278Z,51.67
2023-02-08T00:53:30.688Z,40.20
2023-02-08T00:55:57.676Z,48.25
2023-02-08T00:58:24.367Z,45.80
2023-02-08T01:00:52.961Z,45.05
2023-02-08T01:03:21.578Z,44.80
2023-02-08T01:05:48.166Z,50.85
2023-02-08T01:08:15.320Z,48.58
2023-02-08T01:10:44.638Z,50.08
2023-02-08T01:13:11.178Z,48.55
2023-02-08T01:15:37.777Z,50.60
2023-02-08T01:18:05.041Z,51.50
2023-02-08T01:20:37.431Z,52.17
2023-02-08T01:23:04.636Z,47.80
2023-02-08T01:25:31.151Z,50.58
2023-02-08T01:27:57.730Z,49.30
2023-02-08T01:30:24.343Z,50.60
2023-02-08T01:32:50.921Z,52.88
2023-02-08T01:35:17.590Z,63.15
2023-02-08T01:37:46.367Z,72.93
2023-02-08T01:40:15.708Z,75.60
2023-02-08T01:42:42.170Z,61.97
2023-02-08T01:45:20.719Z,64.32
2023-02-08T01:47:52.075Z,51.60
2023-02-08T01:50:21.632Z,47.78
2023-02-08T01:52:51.423Z,48.88
2023-02-08T01:55:27.082Z,47.00
2023-02-08T01:57:56.756Z,42.45
2023-02-08T02:00:24.577Z,44.47
2023-02-08T02:02:56.501Z,45.45
2023-02-08T02:05:28.198Z,43.25
2023-02-08T02:07:57.208Z,51.45
2023-02-08T02:10:30.179Z,49.35
2023-02-08T02:13:02.159Z,48.00
2023-02-08T02:15:28.622Z,53.95
2023-02-08T02:17:55.317Z,57.05
2023-02-08T02:20:46.574Z,50.97
2023-02-08T02:23:43.595Z,52.70
2023-02-08T02:26:31.407Z,51.33
2023-02-08T02:29:06.871Z,51.85
2023-02-08T02:31:42.300Z,60.38
2023-02-08T02:34:46.963Z,56.05
2023-02-08T02:37:37.685Z,47.83
2023-02-08T02:40:42.101Z,45.58
2023-02-08T02:43:27.284Z,48.05
2023-02-08T02:46:24.308Z,59.92
2023-02-08T02:49:20.597Z,64.72
2023-02-08T02:52:06.241Z,60.55
2023-02-08T02:54:37.398Z,61.50
2023-02-08T02:57:08.109Z,69.95
2023-02-08T02:59:37.479Z,57.30
2023-02-08T03:02:04.717Z,55.83
2023-02-08T03:04:34.212Z,53.97
2023-02-08T03:07:03.433Z,53.42
2023-02-08T03:10:00.988Z,61.72
2023-02-08T03:13:09.358Z,68.50
2023-02-08T03:15:35.760Z,54.20
2023-02-08T03:18:33.253Z,48.13
2023-02-08T03:21:15.327Z,48.17
2023-02-08T03:24:07.409Z,49.33
2023-02-08T03:26:46.598Z,45.20
2023-02-08T03:29:44.988Z,52.28
2023-02-08T03:32:24.195Z,48.83
2023-02-08T03:35:05.159Z,50.28
2023-02-08T03:38:05.765Z,49.97
2023-02-08T03:40:38.349Z,46.35
2023-02-08T03:43:14.229Z,48.60
2023-02-08T03:45:46.771Z,55.10
2023-02-08T03:48:17.621Z,60.10
2023-02-08T03:50:48.441Z,55.00
2023-02-08T03:53:19.896Z,49.40
2023-02-08T03:55:50.155Z,44.25
2023-02-08T03:58:34.555Z,47.55
2023-02-08T04:01:09.345Z,46.00
2023-02-08T04:03:36.799Z,45.38
2023-02-08T04:06:03.737Z,45.30
2023-02-08T04:08:30.224Z,44.95
2023-02-08T04:10:56.758Z,43.42
2023-02-08T04:13:23.315Z,53.17
2023-02-08T04:15:50.036Z,55.08
2023-02-08T04:18:16.531Z,59.90
2023-02-08T04:20:42.995Z,53.38
2023-02-08T04:23:09.455Z,48.70
2023-02-08T04:25:35.936Z,48.25
2023-02-08T04:28:02.425Z,63.17
2023-02-08T04:30:29.102Z,58.50
2023-02-08T04:32:55.640Z,53.13
2023-02-08T04:35:22.104Z,62.58
2023-02-08T04:37:50.847Z,52.05
2023-02-08T04:40:17.408Z,45.75
2023-02-08T04:42:46.517Z,46.33
2023-02-08T04:45:12.993Z,44.75
2023-02-08T04:47:39.448Z,49.75
2023-02-08T04:50:06.280Z,49.53
2023-02-08T04:52:32.780Z,46.42
2023-02-08T04:54:59.222Z,45.08
2023-02-08T04:57:25.687Z,49.83
2023-02-08T04:59:52.118Z,45.60
2023-02-08T05:02:18.628Z,44.38
2023-02-08T05:04:45.178Z,48.75
2023-02-08T05:07:11.643Z,46.53
2023-02-08T05:09:38.167Z,48.40
2023-02-08T05:12:04.974Z,51.72
2023-02-08T05:14:31.459Z,47.95
2023-02-08T05:17:00.381Z,46.05
2023-02-08T05:19:26.864Z,43.80
2023-02-08T05:21:53.297Z,45.10
2023-02-08T05:24:19.833Z,44.55
2023-02-08T05:26:46.328Z,48.78
2023-02-08T05:29:12.812Z,46.47
2023-02-08T05:31:39.413Z,49.63
2023-02-08T05:34:05.977Z,47.22
2023-02-08T05:36:35.437Z,53.47
2023-02-08T05:39:02.051Z,58.75
2023-02-08T05:41:28.472Z,59.05
2023-02-08T05:43:54.942Z,55.95
2023-02-08T05:46:21.446Z,62.83
2023-02-08T05:48:48.069Z,58.92
2023-02-08T05:51:14.621Z,44.80
2023-02-08T05:53:41.340Z,50.08
2023-02-08T05:56:07.910Z,53.47
2023-02-08T05:58:34.488Z,47.10
2023-02-08T06:01:01.008Z,46.08
2023-02-08T06:03:27.544Z,46.75
2023-02-08T06:05:54.034Z,47.63
2023-02-08T06:08:20.532Z,44.10
2023-02-08T06:10:50.833Z,42.05
2023-02-08T06:13:17.315Z,45.17
2023-02-08T06:15:46.320Z,44.95
2023-02-08T06:18:13.019Z,45.42
2023-02-08T06:20:39.747Z,45.58
2023-02-08T06:23:06.424Z,52.28
2023-02-08T06:25:32.957Z,42.92
2023-02-08T06:27:59.530Z,42.10
2023-02-08T06:30:26.166Z,46.70
2023-02-08T06:32:52.629Z,42.53
2023-02-08T06:35:19.265Z,45.88
2023-02-08T06:37:45.759Z,44.25
2023-02-08T06:40:12.274Z,43.92
2023-02-08T06:42:38.792Z,44.97
2023-02-08T06:45:08.264Z,39.45
2023-02-08T06:47:34.711Z,44.08
2023-02-08T06:50:01.274Z,44.00
2023-02-08T06:52:27.771Z,44.95
2023-02-08T06:54:54.520Z,41.30
2023-02-08T06:57:21.028Z,40.25
2023-02-08T06:59:47.493Z,40.05
2023-02-08T07:02:16.694Z,39.60
2023-02-08T07:04:44.003Z,40.70
2023-02-08T07:07:12.401Z,40.03
2023-02-08T07:09:39.257Z,41.85
2023-02-08T07:12:05.989Z,35.25
2023-02-08T07:14:33.953Z,39.28
2023-02-08T07:17:03.692Z,42.17
2023-02-08T07:19:32.728Z,38.45
2023-02-08T07:22:06.694Z,37.10
2023-02-08T07:24:45.555Z,37.22
2023-02-08T07:27:13.328Z,41.42
2023-02-08T07:29:40.835Z,39.92
2023-02-08T07:32:09.794Z,38.17
2023-02-08T07:34:37.939Z,36.92
2023-02-08T07:37:07.016Z,32.80
2023-02-08T07:39:36.052Z,33.10
2023-02-08T07:42:02.860Z,35.00
2023-02-08T07:44:29.447Z,32.47
2023-02-08T07:46:56.052Z,34.67
2023-02-08T07:49:22.608Z,36.17
2023-02-08T07:51:49.176Z,37.13
2023-02-08T07:54:16.009Z,32.72
2023-02-08T07:56:42.584Z,32.72
2023-02-08T07:59:09.203Z,31.85
2023-02-08T08:01:35.796Z,40.95
2023-02-08T08:04:02.614Z,34.20
2023-02-08T08:06:31.383Z,34.00
2023-02-08T08:08:58.111Z,36.05
2023-02-08T08:11:24.673Z,32.35
2023-02-08T08:13:51.887Z,41.03
2023-02-08T08:16:19.358Z,36.45
2023-02-08T08:18:46.822Z,37.55
2023-02-08T08:21:13.821Z,39.72
2023-02-08T08:23:40.378Z,41.45
2023-02-08T08:26:13.957Z,37.42
2023-02-08T08:28:41.790Z,38.35
2023-02-08T08:31:16.161Z,38.90
2023-02-08T08:33:42.901Z,38.30
2023-02-08T08:36:09.984Z,39.55
2023-02-08T08:38:38.815Z,36.90
2023-02-08T08:41:10.866Z,39.58
2023-02-08T08:43:37.856Z,37.45
2023-02-08T08:46:06.613Z,41.90
2023-02-08T08:48:34.808Z,36.03
2023-02-08T08:51:01.647Z,42.97
2023-02-08T08:53:28.281Z,38.30
2023-02-08T08:55:54.932Z,37.58
2023-02-08T08:58:21.496Z,37.20
2023-02-08T09:00:48.320Z,38.55
2023-02-08T09:03:14.896Z,37.00
2023-02-08T09:05:42.063Z,40.05
2023-02-08T09:08:08.669Z,37.75
2023-02-08T09:10:35.427Z,37.85
2023-02-08T09:13:02.033Z,39.40
2023-02-08T09:15:28.672Z,37.35
2023-02-08T09:17:55.328Z,33.85
2023-02-08T09:20:21.971Z,33.92
2023-02-08T09:22:48.600Z,33.08
2023-02-08T09:25:15.422Z,39.75
2023-02-08T09:27:42.006Z,31.77
2023-02-08T09:30:09.343Z,34.20
2023-02-08T09:32:36.734Z,29.58
2023-02-08T09:35:06.210Z,39.72
2023-02-08T09:37:35.449Z,29.65
2023-02-08T09:40:02.218Z,30.27
2023-02-08T09:42:44.953Z,33.75
2023-02-08T09:45:51.094Z,33.53
2023-02-08T09:48:36.789Z,33.38
2023-02-08T09:51:24.585Z,34.67
2023-02-08T09:54:07.157Z,36.22
2023-02-08T09:56:40.419Z,36.05
2023-02-08T09:59:13.783Z,33.65
2023-02-08T10:01:40.404Z,38.38
2023-02-08T10:04:25.825Z,36.03
2023-02-08T10:06:52.659Z,37.95
2023-02-08T10:09:26.883Z,40.75
2023-02-08T10:12:13.350Z,35.70
2023-02-08T10:14:52.884Z,39.10
2023-02-08T10:17:34.791Z,32.97
2023-02-08T10:20:13.492Z,34.45
2023-02-08T10:22:55.324Z,37.70
2023-02-08T10:25:43.430Z,37.33
2023-02-08T10:28:22.116Z,36.85
2023-02-08T10:31:08.698Z,35.97
2023-02-08T10:33:56.506Z,32.65
2023-02-08T10:36:35.896Z,32.22
2023-02-08T10:39:15.176Z,34.90
2023-02-08T10:41:43.215Z,35.35
2023-02-08T10:44:21.461Z,31.52
2023-02-08T10:46:56.553Z,32.00
2023-02-08T10:49:35.522Z,32.50
2023-02-08T10:52:02.638Z,32.97
2023-02-08T10:54:29.536Z,35.83
2023-02-08T10:57:01.004Z,33.50
2023-02-08T10:59:35.545Z,33.50
2023-02-08T11:02:02.146Z,33.83
2023-02-08T11:04:28.850Z,36.83
2023-02-08T11:06:55.622Z,36.08
2023-02-08T11:09:32.223Z,33.83
2023-02-08T11:12:01.872Z,31.98
2023-02-08T11:14:46.261Z,36.22
2023-02-08T11:17:34.058Z,34.28
2023-02-08T11:20:03.333Z,32.78
2023-02-08T11:22:31.431Z,37.20
2023-02-08T11:25:01.209Z,34.13
2023-02-08T11:27:48.097Z,33.55
2023-02-08T11:30:14.865Z,34.58
2023-02-08T11:32:43.395Z,34.55
2023-02-08T11:35:21.879Z,34.25
2023-02-08T11:37:50.226Z,32.83
2023-02-08T11:40:23.402Z,30.25
2023-02-08T11:42:51.750Z,36.33
2023-02-08T11:45:26.851Z,33.60
2023-02-08T11:47:56.533Z,31.42
2023-02-08T11:50:37.669Z,33.08
2023-02-08T11:53:17.587Z,31.80
2023-02-08T11:56:02.063Z,33.08
2023-02-08T11:58:28.664Z,31.90
2023-02-08T12:01:12.766Z,32.17
2023-02-08T12:03:41.615Z,32.15
2023-02-08T12:06:32.368Z,32.83
2023-02-08T12:09:10.312Z,33.65
2023-02-08T12:11:51.460Z,31.02
2023-02-08T12:14:42.723Z,32.75
2023-02-08T12:17:44.989Z,35.28
2023-02-08T12:20:15.860Z,30.33
2023-02-08T12:22:57.485Z,32.45
2023-02-08T12:25:24.034Z,30.73
2023-02-08T12:28:26.501Z,31.38
2023-02-08T12:31:05.290Z,30.00
2023-02-08T12:33:50.727Z,29.38
2023-02-08T12:36:17.236Z,34.38
2023-02-08T12:39:17.867Z,29.42
2023-02-08T12:42:10.294Z,29.90
2023-02-08T12:45:04.424Z,29.08
2023-02-08T12:47:41.649Z,32.70
2023-02-08T12:50:33.619Z,31.67
2023-02-08T12:53:22.332Z,28.17
2023-02-08T12:55:51.497Z,28.95
2023-02-08T12:58:31.877Z,28.13
2023-02-08T13:01:08.029Z,30.73
2023-02-08T13:04:11.734Z,31.05
2023-02-08T13:06:40.973Z,30.15
2023-02-08T13:09:35.535Z,26.55
2023-02-08T13:12:20.051Z,27.45
2023-02-08T13:15:03.188Z,27.23
2023-02-08T13:17:38.808Z,26.52
2023-02-08T13:20:20.033Z,27.58
2023-02-08T13:22:47.222Z,28.65
2023-02-08T13:25:26.305Z,28.88
2023-02-08T13:27:53.644Z,33.67
2023-02-08T13:30:22.111Z,35.60
2023-02-08T13:32:51.749Z,32.85
2023-02-08T13:35:27.602Z,29.13
2023-02-08T13:38:06.289Z,27.70
2023-02-08T13:40:36.640Z,31.13
2023-02-08T13:43:34.678Z,29.13
2023-02-08T13:46:03.690Z,30.30
2023-02-08T13:48:44.155Z,30.63
2023-02-08T13:51:58.700Z,27.13
2023-02-08T13:56:54.326Z,27.65
2023-02-08T13:59:28.872Z,26.60
2023-02-08T14:02:14.960Z,24.92
2023-02-08T14:05:22.718Z,32.20
2023-02-08T14:07:49.976Z,27.38
2023-02-08T14:10:26.433Z,25.92
2023-02-08T14:12:52.923Z,27.90
2023-02-08T14:15:40.277Z,27.17
2023-02-08T14:18:27.946Z,27.23
2023-02-08T14:21:06.304Z,27.60
2023-02-08T14:23:38.314Z,27.90
2023-02-08T14:26:18.191Z,27.85
2023-02-08T14:28:46.785Z,25.65
2023-02-08T14:31:16.897Z,26.17
2023-02-08T14:33:53.015Z,24.38
2023-02-08T14:36:28.151Z,27.30
2023-02-08T14:39:27.694Z,26.92
2023-02-08T14:42:05.312Z,27.25
2023-02-08T14:44:38.083Z,29.60
2023-02-08T14:47:26.845Z,27.88
2023-02-08T14:50:15.830Z,27.92
2023-02-08T14:52:52.961Z,26.77
2023-02-08T14:55:27.619Z,25.23
2023-02-08T14:57:56.357Z,25.80
2023-02-08T15:00:28.448Z,26.15
2023-02-08T15:02:56.738Z,25.23
2023-02-08T15:05:31.658Z,22.27
2023-02-08T15:07:59.972Z,23.77
2023-02-08T15:10:28.513Z,25.58
2023-02-08T15:12:58.189Z,22.30
2023-02-08T15:15:33.839Z,23.33
2023-02-08T15:18:02.120Z,26.23
2023-02-08T15:20:30.668Z,24.02
2023-02-08T15:23:00.212Z,22.45
2023-02-08T15:25:32.616Z,25.48
2023-02-08T15:28:07.049Z,20.42
2023-02-08T15:30:37.797Z,22.63
2023-02-08T15:33:10.582Z,20.88
2023-02-08T15:35:37.193Z,20.53
2023-02-08T15:38:05.510Z,17.55
2023-02-08T15:40:34.004Z,17.30
2023-02-08T15:43:13.520Z,23.15
2023-02-08T15:45:41.301Z,16.98
2023-02-08T15:48:08.278Z,21.08
2023-02-08T15:50:35.886Z,21.05
2023-02-08T15:53:06.297Z,19.58
2023-02-08T15:55:45.263Z,26.65
2023-02-08T15:58:20.375Z,113.40
2023-02-08T16:00:47.450Z,74.45
2023-02-08T16:03:26.241Z,38.50
2023-02-08T16:05:57.163Z,22.35
2023-02-08T16:08:29.969Z,19.38
2023-02-08T16:11:00.614Z,20.98
2023-02-08T16:13:35.959Z,20.55
2023-02-08T16:16:14.810Z,22.63
2023-02-08T16:18:46.114Z,18.77
2023-02-08T16:21:29.078Z,16.38
2023-02-08T16:24:05.840Z,19.40
2023-02-08T16:26:49.414Z,18.40
2023-02-08T16:29:28.395Z,16.70
2023-02-08T16:32:07.866Z,17.55
2023-02-08T16:34:38.452Z,16.20
2023-02-08T16:37:20.635Z,16.35
2023-02-08T16:39:59.832Z,16.48
2023-02-08T16:42:40.031Z,17.52
2023-02-08T16:45:17.018Z,14.43
2023-02-08T16:47:54.765Z,16.90
2023-02-08T16:50:28.449Z,17.25
2023-02-08T16:52:59.826Z,15.40
2023-02-08T16:55:29.805Z,15.27
2023-02-08T16:57:58.175Z,32.72
2023-02-08T17:00:36.248Z,18.77
2023-02-08T17:03:03.024Z,55.97
2023-02-08T17:05:37.241Z,28.95
2023-02-08T17:08:09.964Z,18.60
2023-02-08T17:10:39.399Z,18.23
2023-02-08T17:13:24.280Z,20.95
2023-02-08T17:15:51.190Z,14.73
2023-02-08T17:18:18.280Z,15.30
2023-02-08T17:20:45.243Z,14.45
2023-02-08T17:23:12.679Z,17.15
2023-02-08T17:25:39.492Z,14.82
2023-02-08T17:28:09.839Z,16.38
2023-02-08T17:30:38.934Z,17.83
2023-02-08T17:33:10.148Z,17.35
2023-02-08T17:35:38.125Z,13.25
2023-02-08T17:38:05.680Z,14.10
2023-02-08T17:40:35.488Z,14.45
2023-02-08T17:43:03.462Z,13.85
2023-02-08T17:45:36.450Z,13.73
2023-02-08T17:48:03.270Z,17.33
2023-02-08T17:50:29.794Z,14.68
2023-02-08T17:52:56.261Z,18.45
2023-02-08T17:55:22.883Z,14.77
2023-02-08T17:57:49.389Z,13.63
2023-02-08T18:00:19.890Z,41.35
2023-02-08T18:02:48.951Z,38.35
2023-02-08T18:05:18.169Z,15.45
2023-02-08T18:07:44.747Z,16.98
2023-02-08T18:10:12.308Z,15.88
2023-02-08T18:12:39.014Z,18.30
2023-02-08T18:15:07.023Z,22.63
2023-02-08T18:17:33.724Z,23.02
2023-02-08T18:20:00.360Z,12.60
2023-02-08T18:22:27.541Z,14.35
2023-02-08T18:24:55.361Z,16.58
2023-02-08T18:27:22.885Z,14.68
2023-02-08T18:29:49.418Z,13.65
2023-02-08T18:32:16.213Z,15.13
2023-02-08T18:34:43.099Z,14.02
2023-02-08T18:37:09.817Z,13.85
2023-02-08T18:39:36.474Z,12.93
2023-02-08T18:42:03.299Z,14.38
2023-02-08T18:44:29.918Z,12.95
2023-02-08T18:46:56.545Z,12.95
2023-02-08T18:49:23.065Z,16.83
2023-02-08T18:51:52.064Z,13.93
2023-02-08T18:54:18.639Z,14.27
2023-02-08T18:56:45.729Z,16.75
2023-02-08T18:59:12.823Z,14.20
2023-02-08T19:01:39.607Z,14.63
2023-02-08T19:04:06.214Z,14.38
2023-02-08T19:06:37.013Z,14.70
2023-02-08T19:09:06.751Z,14.88
2023-02-08T19:11:40.446Z,14.38
2023-02-08T19:14:10.722Z,14.82
2023-02-08T19:16:38.249Z,13.05
2023-02-08T19:19:06.531Z,15.25
2023-02-08T19:21:33.973Z,14.90
2023-02-08T19:24:02.092Z,12.73
2023-02-08T19:26:32.710Z,12.55
2023-02-08T19:29:03.429Z,12.85
2023-02-08T19:31:30.806Z,14.45
2023-02-08T19:34:02.120Z,16.73
2023-02-08T19:36:32.591Z,19.80
2023-02-08T19:38:59.843Z,47.13
2023-02-08T19:41:33.158Z,109.70
2023-02-08T19:44:00.906Z,130.57
2023-02-08T19:46:28.008Z,22.05
2023-02-08T19:49:00.177Z,19.35
2023-02-08T19:51:32.116Z,19.30
2023-02-08T19:54:00.809Z,14.52
2023-02-08T19:56:28.406Z,20.50
2023-02-08T19:58:54.900Z,20.38
2023-02-08T20:01:23.112Z,15.13
2023-02-08T20:03:52.912Z,19.13
2023-02-08T20:06:25.415Z,12.75
2023-02-08T20:08:54.689Z,16.95
2023-02-08T20:11:26.397Z,16.15
2023-02-08T20:13:55.327Z,11.88
2023-02-08T20:16:24.925Z,13.90
2023-02-08T20:18:54.759Z,16.05
2023-02-08T20:21:23.694Z,12.35
2023-02-08T20:23:50.950Z,13.32
2023-02-08T20:26:25.964Z,18.40
2023-02-08T20:28:56.868Z,12.73
2023-02-08T20:31:26.731Z,13.63
2023-02-08T20:33:53.784Z,17.10
2023-02-08T20:36:28.913Z,12.80
2023-02-08T20:38:57.664Z,16.85
2023-02-08T20:41:26.235Z,14.13
2023-02-08T20:43:53.236Z,20.75
2023-02-08T20:46:23.493Z,16.55
2023-02-08T20:48:51.417Z,15.82
2023-02-08T20:51:20.515Z,13.10
2023-02-08T20:53:47.703Z,14.73
2023-02-08T20:56:21.635Z,15.45
2023-02-08T20:58:48.775Z,14.68
2023-02-08T21:01:20.641Z,15.20
2023-02-08T21:03:47.246Z,16.92
2023-02-08T21:06:26.501Z,18.60
2023-02-08T21:08:55.327Z,14.98
2023-02-08T21:11:24.083Z,14.55
2023-02-08T21:13:51.185Z,16.85
2023-02-08T21:16:18.359Z,16.65
2023-02-08T21:18:45.888Z,15.65
2023-02-08T21:21:13.284Z,15.27
2023-02-08T21:23:39.781Z,20.05
2023-02-08T21:26:08.108Z,19.73
2023-02-08T21:28:35.467Z,16.58
2023-02-08T21:31:08.262Z,16.42
2023-02-08T21:33:34.923Z,16.38
2023-02-08T21:36:08.586Z,16.23
2023-02-08T21:38:35.086Z,15.93
2023-02-08T21:41:09.798Z,18.88
2023-02-08T21:43:39.570Z,18.27
2023-02-08T21:46:07.596Z,15.80
2023-02-08T21:48:54.855Z,17.63
2023-02-08T21:51:41.114Z,16.90
2023-02-08T21:54:31.194Z,16.60
2023-02-08T21:57:02.197Z,15.75
2023-02-08T21:59:29.500Z,17.80
2023-02-08T22:01:56.515Z,16.55
2023-02-08T22:04:23.109Z,15.90
2023-02-08T22:06:49.698Z,14.98
2023-02-08T22:09:17.647Z,22.20
2023-02-08T22:11:46.392Z,19.13
2023-02-08T22:14:13.606Z,18.55
2023-02-08T22:16:42.549Z,17.63
2023-02-08T22:19:11.526Z,18.70
2023-02-08T22:21:38.040Z,20.73
2023-02-08T22:24:04.648Z,17.02
2023-02-08T22:26:31.147Z,18.13
2023-02-08T22:28:57.652Z,17.98
2023-02-08T22:31:27.536Z,18.48
2023-02-08T22:33:54.193Z,20.75
2023-02-08T22:36:21.110Z,17.10
2023-02-08T22:38:47.575Z,14.90
2023-02-08T22:41:16.553Z,16.13
2023-02-08T22:43:44.855Z,18.92
2023-02-08T22:46:11.986Z,16.50
2023-02-08T22:48:38.574Z,16.88
2023-02-08T22:51:09.793Z,18.27
2023-02-08T22:53:36.402Z,16.27
2023-02-08T22:56:03.039Z,20.05
2023-02-08T22:58:29.693Z,17.05
2023-02-08T23:00:56.241Z,17.52
2023-02-08T23:03:25.702Z,16.42
2023-02-08T23:05:52.878Z,19.45
2023-02-08T23:08:21.397Z,15.43
2023-02-08T23:10:48.324Z,15.95
2023-02-08T23:13:14.973Z,19.45
2023-02-08T23:15:44.052Z,20.23
2023-02-08T23:18:10.647Z,20.35
2023-02-08T23:20:39.284Z,18.80
2023-02-08T23:23:05.873Z,20.27
2023-02-08T23:25:35.101Z,19.33
2023-02-08T23:28:01.558Z,19.10
2023-02-08T23:30:30.418Z,19.15
2023-02-08T23:32:56.956Z,20.95
2023-02-08T23:35:26.116Z,19.92
2023-02-08T23:37:52.573Z,21.13
2023-02-08T23:40:19.149Z,19.92
2023-02-08T23:42:48.221Z,20.25
2023-02-08T23:45:14.720Z,20.50
2023-02-08T23:47:41.303Z,16.20
2023-02-08T23:50:08.533Z,16.85
2023-02-08T23:52:35.790Z,17.23
2023-02-08T23:55:04.123Z,17.65
2023-02-08T23:57:35.699Z,19.02
